TimeCDT,TemperatureF,Dew PointF,Humidity,Sea Level PressureIn,VisibilityMPH,Wind Direction,Wind SpeedMPH,Gust SpeedMPH,PrecipitationIn,Events,Conditions,WindDirDegrees,DateUTC
12:13 AM,73.4,66.2,78,29.69,10.0,SSE,10.4,-,N/A,,Clear,160,2013-09-19 05:13:00
12:32 AM,73.4,66.2,78,29.68,10.0,SSE,8.1,-,N/A,,Clear,150,2013-09-19 05:32:00
12:52 AM,73.4,66.2,78,29.68,10.0,SSE,9.2,-,N/A,,Clear,160,2013-09-19 05:52:00
1:12 AM,73.4,66.2,78,29.67,10.0,SSE,10.4,-,N/A,,Clear,160,2013-09-19 06:12:00
1:32 AM,73.4,66.2,78,29.68,10.0,South,9.2,-,N/A,,Clear,170,2013-09-19 06:32:00
1:53 AM,73.4,66.2,78,29.68,10.0,South,9.2,-,N/A,,Clear,170,2013-09-19 06:53:00
2:12 AM,73.4,66.2,78,29.68,10.0,South,10.4,-,N/A,,Clear,170,2013-09-19 07:12:00
2:32 AM,73.4,66.2,78,29.68,10.0,South,8.1,-,N/A,,Clear,170,2013-09-19 07:32:00
2:53 AM,73.4,66.2,78,29.69,10.0,Calm,Calm,-,N/A,,Clear,0,2013-09-19 07:53:00
3:12 AM,71.6,66.2,83,29.70,10.0,NNE,3.5,-,N/A,,Clear,20,2013-09-19 08:12:00
3:32 AM,69.8,66.2,88,29.68,10.0,SE,5.8,-,N/A,,Clear,140,2013-09-19 08:32:00
3:53 AM,71.6,66.2,83,29.68,10.0,South,3.5,-,N/A,,Clear,170,2013-09-19 08:53:00
4:12 AM,71.6,66.2,83,29.67,10.0,South,3.5,-,N/A,,Clear,180,2013-09-19 09:12:00
4:32 AM,71.6,66.2,83,29.68,10.0,SW,4.6,-,N/A,,Clear,230,2013-09-19 09:32:00
4:53 AM,69.8,64.4,83,29.68,10.0,Calm,Calm,-,N/A,,Clear,0,2013-09-19 09:53:00
5:12 AM,66.2,64.4,94,29.68,10.0,Calm,Calm,-,N/A,,Clear,0,2013-09-19 10:12:00
5:32 AM,66.2,64.4,94,29.67,10.0,Calm,Calm,-,N/A,,Clear,0,2013-09-19 10:32:00
5:53 AM,66.2,64.4,94,29.67,10.0,SSE,4.6,-,N/A,,Clear,150,2013-09-19 10:53:00
6:12 AM,66.2,64.4,94,29.68,10.0,Calm,Calm,-,N/A,,Clear,0,2013-09-19 11:12:00
6:32 AM,66.2,64.4,94,29.67,10.0,Calm,Calm,-,N/A,,Clear,0,2013-09-19 11:32:00
6:52 AM,68.0,64.4,88,29.66,10.0,SSE,5.8,-,N/A,,Clear,150,2013-09-19 11:52:00
7:12 AM,68.0,64.4,88,29.65,10.0,SE,4.6,-,N/A,,Clear,140,2013-09-19 12:12:00
7:32 AM,68.0,64.4,88,29.67,10.0,South,6.9,-,N/A,,Clear,170,2013-09-19 12:32:00
7:52 AM,69.8,64.4,83,29.69,10.0,South,9.2,-,N/A,,Scattered Clouds,190,2013-09-19 12:52:00
8:12 AM,71.6,64.4,78,29.69,10.0,SW,16.1,23.0,N/A,,Mostly Cloudy,220,2013-09-19 13:12:00
8:32 AM,71.6,64.4,78,29.66,10.0,West,16.1,20.7,N/A,,Mostly Cloudy,270,2013-09-19 13:32:00
8:53 AM,69.8,62.6,78,29.65,10.0,WNW,16.1,21.9,N/A,Thunderstorm,Clear,290,2013-09-19 13:53:00
9:12 AM,69.8,62.6,78,29.74,10.0,West,20.7,28.8,N/A,Thunderstorm,Thunderstorm,270,2013-09-19 14:12:00
9:32 AM,66.2,62.6,88,29.70,5.0,North,13.8,18.4,0.27,Rain-Thunderstorm,Heavy Thunderstorms and Rain,360,2013-09-19 14:32:00
9:53 AM,64.4,62.6,94,29.75,10.0,SSW,4.6,-,0.29,Rain-Thunderstorm,Light Thunderstorms and Rain,210,2013-09-19 14:53:00
10:12 AM,64.4,62.6,94,29.75,10.0,SW,4.6,-,N/A,,Clear,230,2013-09-19 15:12:00
10:32 AM,64.4,62.6,94,29.74,10.0,Calm,Calm,-,N/A,,Clear,0,2013-09-19 15:32:00
10:53 AM,64.4,62.6,94,29.75,10.0,SW,6.9,-,N/A,,Clear,230,2013-09-19 15:53:00
11:12 AM,64.4,62.6,94,29.78,10.0,West,8.1,-,N/A,,Clear,260,2013-09-19 16:12:00
11:32 AM,66.2,62.6,88,29.80,10.0,West,9.2,-,N/A,,Clear,270,2013-09-19 16:32:00
11:53 AM,68.0,64.4,88,29.79,10.0,WNW,11.5,-,N/A,,Clear,290,2013-09-19 16:53:00
12:12 PM,69.8,64.4,83,29.78,10.0,WNW,13.8,-,N/A,,Clear,290,2013-09-19 17:12:00
12:32 PM,71.6,64.4,78,29.80,10.0,WNW,12.7,-,N/A,,Scattered Clouds,290,2013-09-19 17:32:00
12:53 PM,69.8,62.6,78,29.81,10.0,NW,12.7,18.4,N/A,,Mostly Cloudy,310,2013-09-19 17:53:00
1:12 PM,69.8,62.6,78,29.81,10.0,WNW,13.8,18.4,N/A,,Mostly Cloudy,290,2013-09-19 18:12:00
1:33 PM,69.8,62.6,78,29.82,10.0,WNW,8.1,-,N/A,,Mostly Cloudy,290,2013-09-19 18:33:00
1:52 PM,69.8,62.6,78,29.82,10.0,West,4.6,-,N/A,,Overcast,280,2013-09-19 18:52:00
2:13 PM,71.6,62.6,73,29.82,10.0,WNW,9.2,-,N/A,,Overcast,300,2013-09-19 19:13:00
2:32 PM,73.4,64.4,73,29.82,10.0,NW,11.5,-,N/A,,Mostly Cloudy,310,2013-09-19 19:32:00
2:52 PM,71.6,62.6,73,29.80,10.0,NW,12.7,17.3,N/A,,Mostly Cloudy,320,2013-09-19 19:52:00
3:12 PM,73.4,62.6,69,29.79,10.0,NW,13.8,-,N/A,,Mostly Cloudy,310,2013-09-19 20:12:00
3:32 PM,73.4,62.6,69,29.79,10.0,WNW,10.4,-,N/A,,Mostly Cloudy,290,2013-09-19 20:32:00
3:53 PM,73.4,62.6,69,29.79,10.0,NW,11.5,16.1,N/A,,Mostly Cloudy,310,2013-09-19 20:53:00
4:12 PM,73.4,62.6,69,29.81,10.0,NW,12.7,16.1,N/A,,Mostly Cloudy,310,2013-09-19 21:12:00
4:32 PM,73.4,60.8,65,29.81,10.0,WNW,12.7,19.6,N/A,,Scattered Clouds,290,2013-09-19 21:32:00
4:53 PM,73.4,60.8,65,29.82,10.0,WNW,10.4,-,N/A,,Scattered Clouds,300,2013-09-19 21:53:00
5:12 PM,73.4,59.0,61,29.82,10.0,WNW,8.1,18.4,N/A,,Scattered Clouds,300,2013-09-19 22:12:00
5:33 PM,71.6,57.2,60,29.82,10.0,NW,6.9,-,N/A,,Clear,320,2013-09-19 22:33:00
5:52 PM,71.6,60.8,69,29.83,10.0,Calm,Calm,-,N/A,,Scattered Clouds,0,2013-09-19 22:52:00
6:12 PM,71.6,60.8,69,29.84,10.0,WNW,3.5,-,N/A,,Mostly Cloudy,300,2013-09-19 23:12:00
6:32 PM,71.6,57.2,60,29.84,10.0,West,11.5,-,N/A,,Scattered Clouds,280,2013-09-19 23:32:00
6:52 PM,69.8,51.8,53,29.84,10.0,WNW,11.5,-,N/A,,Clear,290,2013-09-19 23:52:00
7:12 PM,69.8,51.8,53,29.83,10.0,WNW,15.0,21.9,N/A,,Clear,290,2013-09-20 00:12:00
7:32 PM,68.0,50.0,52,29.84,10.0,West,13.8,19.6,N/A,,Clear,280,2013-09-20 00:32:00
7:53 PM,66.2,50.0,56,29.85,10.0,West,17.3,24.2,N/A,,Clear,280,2013-09-20 00:53:00
8:12 PM,66.2,48.2,52,29.85,10.0,WNW,15.0,20.7,N/A,,Clear,290,2013-09-20 01:12:00
8:33 PM,64.4,48.2,56,29.85,10.0,WNW,11.5,18.4,N/A,,Clear,300,2013-09-20 01:33:00
8:52 PM,64.4,50.0,59,29.85,10.0,WNW,9.2,-,N/A,,Clear,300,2013-09-20 01:52:00
9:12 PM,62.6,50.0,63,29.86,10.0,WNW,10.4,-,N/A,,Clear,290,2013-09-20 02:12:00
9:32 PM,62.6,51.8,68,29.87,10.0,WNW,9.2,-,N/A,,Clear,290,2013-09-20 02:32:00
9:52 PM,62.6,51.8,68,29.88,10.0,West,15.0,18.4,N/A,,Clear,280,2013-09-20 02:52:00
10:12 PM,62.6,51.8,68,29.89,10.0,WNW,15.0,24.2,N/A,Rain,Light Rain,300,2013-09-20 03:12:00
10:32 PM,60.8,51.8,72,29.90,10.0,WNW,12.7,-,N/A,Rain,Light Rain,300,2013-09-20 03:32:00
10:53 PM,60.8,51.8,72,29.91,10.0,WNW,15.0,-,N/A,,Overcast,290,2013-09-20 03:53:00
11:12 PM,60.8,51.8,72,29.92,10.0,WNW,12.7,-,N/A,,Mostly Cloudy,290,2013-09-20 04:12:00
11:33 PM,59.0,51.8,77,29.92,10.0,WNW,13.8,-,N/A,,Mostly Cloudy,290,2013-09-20 04:33:00
11:52 PM,59.0,51.8,77,29.92,10.0,WNW,11.5,20.7,N/A,,Mostly Cloudy,290,2013-09-20 04:52:00